Knox City, Missouri
Current Conditions -  °F | °C
As of 2:19 PM on Sunday 23 Nov 2014 (Local Time) from KIRK Reporting Station
Light Rain Light Rain  
Wind Chill: 54°   Ceiling: 400
Heat Index: 54°   Visibility: 2.5mi
Dew Point: 54°   Wind: 7mph
Humidity: 100%   Direction: 220°SW
Pressure: 29.36"   Gusts: NA
Location:  40.14°N, 92.01°W
Report Text: KIRK 232019Z AUTO 22006KT 2 1/2SM -RA BR BKN004 BKN017 OVC024 12/12 A2936 RMK AO2 P0002 T01220122
Loading
Personal Weather Stations






























Interactive Weather Map New forecast layout! Learn more

10-Day Weather Forecast

Advertisements
Track Severe Weather on mobile